sensor_id;sensor_type;location;lat;lon;timestamp;pressure;altitude;pressure_sealevel;temperature;humidity
20455;BME280;10386;54.314;10.022;2023-04-08T00:00:28;102517.78;;;6.60;100.00
20455;BME280;10386;54.314;10.022;2023-04-08T00:02:55;102516.75;;;6.64;100.00
20455;BME280;10386;54.314;10.022;2023-04-08T00:05:22;102524.63;;;6.72;100.00
20455;BME280;10386;54.314;10.022;2023-04-08T00:07:48;102526.56;;;6.67;100.00
20455;BME280;10386;54.314;10.022;2023-04-08T00:10:15;102518.97;;;6.81;100.00
20455;BME280;10386;54.314;10.022;2023-04-08T00:12:42;102522.16;;;6.64;100.00
20455;BME280;10386;54.314;10.022;2023-04-08T00:15:09;102527.28;;;6.73;100.00
20455;BME280;10386;54.314;10.022;2023-04-08T00:17:36;102534.66;;;6.67;100.00
20455;BME280;10386;54.314;10.022;2023-04-08T00:20:03;102535.59;;;6.66;100.00
20455;BME280;10386;54.314;10.022;2023-04-08T00:22:31;102535.19;;;6.79;100.00
20455;BME280;10386;54.314;10.022;2023-04-08T00:24:57;102535.81;;;6.58;100.00
20455;BME280;10386;54.314;10.022;2023-04-08T00:27:27;102540.78;;;6.73;100.00
20455;BME280;10386;54.314;10.022;2023-04-08T00:29:53;102545.59;;;6.62;100.00
20455;BME280;10386;54.314;10.022;2023-04-08T00:32:20;102540.97;;;6.66;100.00
20455;BME280;10386;54.314;10.022;2023-04-08T00:34:48;102540.63;;;6.78;100.00
20455;BME280;10386;54.314;10.022;2023-04-08T00:37:14;102541.47;;;6.79;100.00
20455;BME280;10386;54.314;10.022;2023-04-08T00:39:41;102550.91;;;6.65;100.00
20455;BME280;10386;54.314;10.022;2023-04-08T00:42:08;102537.09;;;6.76;100.00
20455;BME280;10386;54.314;10.022;2023-04-08T00:44:35;102542.97;;;6.59;100.00
20455;BME280;10386;54.314;10.022;2023-04-08T00:47:03;102541.34;;;6.84;100.00
20455;BME280;10386;54.314;10.022;2023-04-08T00:49:30;102537.19;;;6.73;100.00
20455;BME280;10386;54.314;10.022;2023-04-08T00:51:58;102547.22;;;6.68;100.00
20455;BME280;10386;54.314;10.022;2023-04-08T00:54:25;102549.91;;;6.68;100.00
20455;BME280;10386;54.314;10.022;2023-04-08T00:56:52;102536.94;;;6.82;100.00
20455;BME280;10386;54.314;10.022;2023-04-08T00:59:19;102544.16;;;6.79;100.00
20455;BME280;10386;54.314;10.022;2023-04-08T01:07:35;102535.19;;;6.81;100.00
20455;BME280;10386;54.314;10.022;2023-04-08T01:10:06;102540.06;;;6.67;100.00
20455;BME280;10386;54.314;10.022;2023-04-08T01:12:46;102541.91;;;6.65;100.00
20455;BME280;10386;54.314;10.022;2023-04-08T01:15:14;102542.75;;;6.67;100.00
20455;BME280;10386;54.314;10.022;2023-04-08T01:17:42;102542.47;;;6.77;100.00
20455;BME280;10386;54.314;10.022;2023-04-08T01:20:12;102536.94;;;6.82;100.00
20455;BME280;10386;54.314;10.022;2023-04-08T01:22:57;102538.84;;;6.77;100.00
20455;BME280;10386;54.314;10.022;2023-04-08T01:25:30;102537.78;;;6.83;100.00
20455;BME280;10386;54.314;10.022;2023-04-08T01:28:03;102541.81;;;6.68;100.00
20455;BME280;10386;54.314;10.022;2023-04-08T01:30:31;102542.50;;;6.76;100.00
20455;BME280;10386;54.314;10.022;2023-04-08T01:33:01;102537.59;;;6.59;100.00
20455;BME280;10386;54.314;10.022;2023-04-08T01:35:30;102531.22;;;6.92;100.00
20455;BME280;10386;54.314;10.022;2023-04-08T01:37:58;102537.19;;;6.73;100.00
20455;BME280;10386;54.314;10.022;2023-04-08T01:40:26;102540.81;;;6.72;100.00
20455;BME280;10386;54.314;10.022;2023-04-08T01:42:55;102546.44;;;6.64;100.00
20455;BME280;10386;54.314;10.022;2023-04-08T01:45:23;102537.25;;;6.70;100.00
20455;BME280;10386;54.314;10.022;2023-04-08T01:47:51;102544.25;;;6.77;100.00
20455;BME280;10386;54.314;10.022;2023-04-08T01:50:20;102548.50;;;6.55;100.00
20455;BME280;10386;54.314;10.022;2023-04-08T01:52:48;102534.75;;;6.64;100.00
20455;BME280;10386;54.314;10.022;2023-04-08T01:55:19;102539.88;;;6.73;100.00
20455;BME280;10386;54.314;10.022;2023-04-08T01:57:51;102537.88;;;6.81;100.00
20455;BME280;10386;54.314;10.022;2023-04-08T02:00:21;102542.16;;;6.56;100.00
20455;BME280;10386;54.314;10.022;2023-04-08T02:02:50;102542.81;;;6.65;100.00
20455;BME280;10386;54.314;10.022;2023-04-08T02:05:18;102543.84;;;6.60;100.00
20455;BME280;10386;54.314;10.022;2023-04-08T02:07:46;102547.13;;;6.71;100.00
20455;BME280;10386;54.314;10.022;2023-04-08T02:10:14;102541.44;;;6.81;100.00
20455;BME280;10386;54.314;10.022;2023-04-08T02:12:42;102541.63;;;6.75;100.00
20455;BME280;10386;54.314;10.022;2023-04-08T02:15:10;102541.09;;;6.93;100.00
20455;BME280;10386;54.314;10.022;2023-04-08T02:20:10;102535.22;;;6.78;100.00
20455;BME280;10386;54.314;10.022;2023-04-08T02:23:14;102543.56;;;6.70;100.00
20455;BME280;10386;54.314;10.022;2023-04-08T02:25:43;102542.00;;;6.62;100.00
20455;BME280;10386;54.314;10.022;2023-04-08T02:28:11;102543.47;;;6.73;100.00
20455;BME280;10386;54.314;10.022;2023-04-08T02:30:43;102532.13;;;6.61;100.00
20455;BME280;10386;54.314;10.022;2023-04-08T02:33:14;102536.41;;;6.69;100.00
20455;BME280;10386;54.314;10.022;2023-04-08T02:35:43;102536.75;;;6.57;100.00
20455;BME280;10386;54.314;10.022;2023-04-08T02:38:10;102528.50;;;6.62;100.00
20455;BME280;10386;54.314;10.022;2023-04-08T02:40:37;102536.59;;;6.62;100.00
20455;BME280;10386;54.314;10.022;2023-04-08T02:43:04;102531.03;;;6.68;100.00
20455;BME280;10386;54.314;10.022;2023-04-08T02:45:36;102526.38;;;6.73;100.00
20455;BME280;10386;54.314;10.022;2023-04-08T02:48:03;102524.44;;;6.78;100.00
20455;BME280;10386;54.314;10.022;2023-04-08T02:50:31;102521.97;;;6.70;100.00
20455;BME280;10386;54.314;10.022;2023-04-08T02:52:58;102524.66;;;6.70;100.00
20455;BME280;10386;54.314;10.022;2023-04-08T02:55:25;102525.91;;;6.59;100.00
20455;BME280;10386;54.314;10.022;2023-04-08T02:57:52;102523.63;;;6.44;100.00
20455;BME280;10386;54.314;10.022;2023-04-08T03:00:19;102523.28;;;6.56;100.00
20455;BME280;10386;54.314;10.022;2023-04-08T03:02:45;102522.25;;;6.60;100.00
20455;BME280;10386;54.314;10.022;2023-04-08T03:05:12;102521.59;;;6.52;100.00
20455;BME280;10386;54.314;10.022;2023-04-08T03:07:39;102515.44;;;6.47;100.00
20455;BME280;10386;54.314;10.022;2023-04-08T03:10:06;102521.34;;;6.61;100.00
20455;BME280;10386;54.314;10.022;2023-04-08T03:12:33;102521.59;;;6.52;100.00
20455;BME280;10386;54.314;10.022;2023-04-08T03:15:00;102525.06;;;6.57;100.00
20455;BME280;10386;54.314;10.022;2023-04-08T03:17:27;102520.38;;;6.31;100.00
20455;BME280;10386;54.314;10.022;2023-04-08T03:19:54;102521.44;;;6.58;100.00
20455;BME280;10386;54.314;10.022;2023-04-08T03:22:20;102520.94;;;6.44;100.00
20455;BME280;10386;54.314;10.022;2023-04-08T03:24:47;102516.47;;;6.43;100.00
20455;BME280;10386;54.314;10.022;2023-04-08T03:27:14;102508.34;;;6.44;100.00
20455;BME280;10386;54.314;10.022;2023-04-08T03:29:41;102514.44;;;6.51;100.00
20455;BME280;10386;54.314;10.022;2023-04-08T03:32:07;102513.59;;;6.49;100.00
20455;BME280;10386;54.314;10.022;2023-04-08T03:34:34;102512.06;;;6.39;100.00
20455;BME280;10386;54.314;10.022;2023-04-08T03:37:01;102501.09;;;6.46;100.00
20455;BME280;10386;54.314;10.022;2023-04-08T03:39:28;102501.94;;;6.48;100.00
20455;BME280;10386;54.314;10.022;2023-04-08T03:41:55;102502.03;;;6.44;100.00
20455;BME280;10386;54.314;10.022;2023-04-08T03:44:21;102499.50;;;6.39;100.00
20455;BME280;10386;54.314;10.022;2023-04-08T03:46:48;102497.78;;;6.35;100.00
20455;BME280;10386;54.314;10.022;2023-04-08T03:49:15;102489.75;;;6.34;100.00
20455;BME280;10386;54.314;10.022;2023-04-08T03:51:41;102487.81;;;6.37;100.00
20455;BME280;10386;54.314;10.022;2023-04-08T03:54:08;102491.25;;;6.44;100.00
20455;BME280;10386;54.314;10.022;2023-04-08T03:56:35;102488.94;;;6.30;100.00
20455;BME280;10386;54.314;10.022;2023-04-08T03:59:02;102482.69;;;6.28;100.00
20455;BME280;10386;54.314;10.022;2023-04-08T04:01:28;102489.00;;;6.27;100.00
20455;BME280;10386;54.314;10.022;2023-04-08T04:03:57;102497.31;;;6.20;100.00
20455;BME280;10386;54.314;10.022;2023-04-08T04:06:24;102478.63;;;6.14;100.00
20455;BME280;10386;54.314;10.022;2023-04-08T04:08:53;102483.88;;;6.18;100.00
20455;BME280;10386;54.314;10.022;2023-04-08T04:11:21;102478.56;;;6.15;100.00
20455;BME280;10386;54.314;10.022;2023-04-08T04:13:48;102476.44;;;6.28;100.00
20455;BME280;10386;54.314;10.022;2023-04-08T04:16:14;102479.41;;;6.17;100.00
20455;BME280;10386;54.314;10.022;2023-04-08T04:18:41;102470.81;;;6.03;100.00
20455;BME280;10386;54.314;10.022;2023-04-08T04:21:08;102470.63;;;6.09;100.00
20455;BME280;10386;54.314;10.022;2023-04-08T04:23:35;102472.38;;;6.12;100.00
20455;BME280;10386;54.314;10.022;2023-04-08T04:26:07;102471.72;;;6.02;100.00
20455;BME280;10386;54.314;10.022;2023-04-08T04:28:35;102470.63;;;6.09;100.00
20455;BME280;10386;54.314;10.022;2023-04-08T04:31:02;102458.41;;;5.98;100.00
20455;BME280;10386;54.314;10.022;2023-04-08T04:33:29;102462.88;;;5.97;100.00
20455;BME280;10386;54.314;10.022;2023-04-08T04:35:56;102454.44;;;6.11;100.00
20455;BME280;10386;54.314;10.022;2023-04-08T04:38:23;102456.28;;;6.09;100.00
20455;BME280;10386;54.314;10.022;2023-04-08T04:40:50;102457.81;;;6.19;100.00
20455;BME280;10386;54.314;10.022;2023-04-08T04:43:16;102442.59;;;6.16;100.00
20455;BME280;10386;54.314;10.022;2023-04-08T04:45:43;102445.59;;;6.06;100.00
20455;BME280;10386;54.314;10.022;2023-04-08T04:48:10;102447.28;;;6.10;100.00
20455;BME280;10386;54.314;10.022;2023-04-08T04:50:37;102449.38;;;5.99;100.00
20455;BME280;10386;54.314;10.022;2023-04-08T04:53:04;102452.59;;;6.13;100.00
20455;BME280;10386;54.314;10.022;2023-04-08T04:55:31;102451.16;;;6.00;100.00
20455;BME280;10386;54.314;10.022;2023-04-08T04:58:00;102460.28;;;5.93;100.00
20455;BME280;10386;54.314;10.022;2023-04-08T05:00:27;102448.66;;;5.92;100.00
20455;BME280;10386;54.314;10.022;2023-04-08T05:02:54;102457.81;;;5.85;100.00
20455;BME280;10386;54.314;10.022;2023-04-08T05:05:21;102451.44;;;5.88;100.00
20455;BME280;10386;54.314;10.022;2023-04-08T05:07:48;102445.28;;;5.84;100.00
20455;BME280;10386;54.314;10.022;2023-04-08T05:10:14;102453.38;;;5.83;100.00
20455;BME280;10386;54.314;10.022;2023-04-08T05:12:41;102447.13;;;5.82;100.00
20455;BME280;10386;54.314;10.022;2023-04-08T05:15:08;102439.47;;;5.99;100.00
20455;BME280;10386;54.314;10.022;2023-04-08T05:17:35;102432.38;;;5.97;100.00
20455;BME280;10386;54.314;10.022;2023-04-08T05:20:02;102436.03;;;5.93;100.00
20455;BME280;10386;54.314;10.022;2023-04-08T05:22:28;102437.94;;;5.89;100.00
20455;BME280;10386;54.314;10.022;2023-04-08T05:24:55;102432.31;;;5.98;100.00
20455;BME280;10386;54.314;10.022;2023-04-08T05:27:22;102433.13;;;6.02;100.00
20455;BME280;10386;54.314;10.022;2023-04-08T05:29:49;102431.50;;;5.95;100.00
20455;BME280;10386;54.314;10.022;2023-04-08T05:32:15;102424.66;;;5.82;100.00
20455;BME280;10386;54.314;10.022;2023-04-08T05:34:43;102423.56;;;5.89;100.00
20455;BME280;10386;54.314;10.022;2023-04-08T05:37:09;102422.72;;;5.87;100.00
20455;BME280;10386;54.314;10.022;2023-04-08T05:39:36;102414.28;;;6.00;100.00
20455;BME280;10386;54.314;10.022;2023-04-08T05:42:03;102426.81;;;6.03;100.00
20455;BME280;10386;54.314;10.022;2023-04-08T05:44:30;102416.78;;;6.08;100.00
20455;BME280;10386;54.314;10.022;2023-04-08T05:46:57;102421.09;;;6.13;100.00
20455;BME280;10386;54.314;10.022;2023-04-08T05:49:23;102420.50;;;6.02;100.00
20455;BME280;10386;54.314;10.022;2023-04-08T05:51:50;102411.84;;;5.90;100.00
20455;BME280;10386;54.314;10.022;2023-04-08T05:54:17;102419.25;;;5.83;100.00
20455;BME280;10386;54.314;10.022;2023-04-08T05:56:44;102416.50;;;5.85;100.00
20455;BME280;10386;54.314;10.022;2023-04-08T05:59:11;102406.94;;;5.72;100.00
20455;BME280;10386;54.314;10.022;2023-04-08T06:01:38;102403.91;;;5.85;100.00
20455;BME280;10386;54.314;10.022;2023-04-08T06:04:05;102409.41;;;5.81;100.00
20455;BME280;10386;54.314;10.022;2023-04-08T06:06:32;102401.16;;;5.87;100.00
20455;BME280;10386;54.314;10.022;2023-04-08T06:08:59;102399.41;;;5.86;100.00
20455;BME280;10386;54.314;10.022;2023-04-08T06:11:26;102394.16;;;5.81;100.00
20455;BME280;10386;54.314;10.022;2023-04-08T06:13:53;102391.31;;;5.86;100.00
20455;BME280;10386;54.314;10.022;2023-04-08T06:16:19;102395.28;;;5.71;100.00
20455;BME280;10386;54.314;10.022;2023-04-08T06:18:47;102386.84;;;5.85;100.00
20455;BME280;10386;54.314;10.022;2023-04-08T06:21:14;102388.78;;;5.80;100.00
20455;BME280;10386;54.314;10.022;2023-04-08T06:23:41;102387.69;;;5.87;100.00
20455;BME280;10386;54.314;10.022;2023-04-08T06:26:08;102384.81;;;5.93;100.00
20455;BME280;10386;54.314;10.022;2023-04-08T06:28:34;102377.84;;;5.86;100.00
20455;BME280;10386;54.314;10.022;2023-04-08T06:31:01;102385.00;;;5.87;100.00
20455;BME280;10386;54.314;10.022;2023-04-08T06:33:28;102388.13;;;5.70;100.00
20455;BME280;10386;54.314;10.022;2023-04-08T06:36:05;102389.53;;;5.86;100.00
20455;BME280;10386;54.314;10.022;2023-04-08T06:38:32;102387.75;;;5.85;100.00
20455;BME280;10386;54.314;10.022;2023-04-08T06:41:03;102394.31;;;5.74;100.00
20455;BME280;10386;54.314;10.022;2023-04-08T06:43:30;102393.53;;;5.70;100.00
20455;BME280;10386;54.314;10.022;2023-04-08T06:45:57;102393.34;;;5.78;100.00
20455;BME280;10386;54.314;10.022;2023-04-08T06:48:24;102393.44;;;5.73;100.00
20455;BME280;10386;54.314;10.022;2023-04-08T06:50:56;102387.47;;;5.96;100.00
20455;BME280;10386;54.314;10.022;2023-04-08T06:53:24;102386.53;;;5.97;100.00
20455;BME280;10386;54.314;10.022;2023-04-08T06:55:51;102380.22;;;5.98;100.00
20455;BME280;10386;54.314;10.022;2023-04-08T06:58:18;102381.75;;;6.06;100.00
20455;BME280;10386;54.314;10.022;2023-04-08T07:00:45;102381.66;;;6.09;100.00
20455;BME280;10386;54.314;10.022;2023-04-08T07:03:12;102379.22;;;6.00;100.00
20455;BME280;10386;54.314;10.022;2023-04-08T07:05:39;102377.19;;;6.10;100.00
20455;BME280;10386;54.314;10.022;2023-04-08T07:08:07;102373.19;;;6.23;100.00
20455;BME280;10386;54.314;10.022;2023-04-08T07:10:34;102371.00;;;6.35;100.00
20455;BME280;10386;54.314;10.022;2023-04-08T07:13:01;102373.84;;;6.31;100.00
20455;BME280;10386;54.314;10.022;2023-04-08T07:15:28;102381.94;;;6.31;100.00
20455;BME280;10386;54.314;10.022;2023-04-08T07:17:55;102378.09;;;6.39;100.00
20455;BME280;10386;54.314;10.022;2023-04-08T07:20:22;102376.47;;;6.34;100.00
20455;BME280;10386;54.314;10.022;2023-04-08T07:22:49;102388.44;;;6.24;100.00
20455;BME280;10386;54.314;10.022;2023-04-08T07:25:16;102381.94;;;6.31;100.00
20455;BME280;10386;54.314;10.022;2023-04-08T07:27:43;102387.59;;;6.22;100.00
20455;BME280;10386;54.314;10.022;2023-04-08T07:30:10;102388.28;;;6.30;100.00
20455;BME280;10386;54.314;10.022;2023-04-08T07:32:38;102391.66;;;6.36;100.00
20455;BME280;10386;54.314;10.022;2023-04-08T07:35:05;102395.13;;;6.41;100.00
20455;BME280;10386;54.314;10.022;2023-04-08T07:37:31;102394.34;;;6.36;100.00
20455;BME280;10386;54.314;10.022;2023-04-08T07:39:58;102393.22;;;6.45;100.00
20455;BME280;10386;54.314;10.022;2023-04-08T07:42:25;102393.97;;;6.50;100.00
20455;BME280;10386;54.314;10.022;2023-04-08T07:44:52;102389.75;;;6.40;100.00
20455;BME280;10386;54.314;10.022;2023-04-08T07:47:19;102392.09;;;6.52;100.00
20455;BME280;10386;54.314;10.022;2023-04-08T07:49:46;102392.66;;;6.63;100.00
20455;BME280;10386;54.314;10.022;2023-04-08T07:52:13;102397.22;;;6.61;100.00
20455;BME280;10386;54.314;10.022;2023-04-08T07:54:41;102396.44;;;6.57;100.00
20455;BME280;10386;54.314;10.022;2023-04-08T07:57:07;102410.63;;;6.64;100.00
20455;BME280;10386;54.314;10.022;2023-04-08T07:59:34;102410.06;;;6.53;100.00
20455;BME280;10386;54.314;10.022;2023-04-08T08:02:01;102416.75;;;6.69;100.00
20455;BME280;10386;54.314;10.022;2023-04-08T08:04:28;102406.59;;;6.48;100.00
20455;BME280;10386;54.314;10.022;2023-04-08T08:06:55;102410.50;;;6.68;100.00
20455;BME280;10386;54.314;10.022;2023-04-08T08:09:22;102414.97;;;6.68;100.00
20455;BME280;10386;54.314;10.022;2023-04-08T08:11:49;102416.16;;;6.88;100.00
20455;BME280;10386;54.314;10.022;2023-04-08T08:14:16;102405.78;;;7.03;100.00
20455;BME280;10386;54.314;10.022;2023-04-08T08:16:42;102408.56;;;7.00;100.00
20455;BME280;10386;54.314;10.022;2023-04-08T08:19:10;102420.44;;;6.95;100.00
20455;BME280;10386;54.314;10.022;2023-04-08T08:21:38;102427.88;;;6.87;100.00
20455;BME280;10386;54.314;10.022;2023-04-08T08:24:05;102423.88;;;7.00;100.00
20455;BME280;10386;54.314;10.022;2023-04-08T08:26:35;102423.38;;;7.15;100.00
20455;BME280;10386;54.314;10.022;2023-04-08T08:29:03;102427.63;;;7.23;100.00
20455;BME280;10386;54.314;10.022;2023-04-08T08:31:30;102440.19;;;7.24;100.00
20455;BME280;10386;54.314;10.022;2023-04-08T08:33:57;102441.00;;;7.28;100.00
20455;BME280;10386;54.314;10.022;2023-04-08T08:36:23;102448.22;;;6.98;100.00
20455;BME280;10386;54.314;10.022;2023-04-08T08:38:50;102464.56;;;6.94;100.00
20455;BME280;10386;54.314;10.022;2023-04-08T08:41:19;102461.56;;;7.03;100.00
20455;BME280;10386;54.314;10.022;2023-04-08T08:43:47;102471.50;;;7.02;100.00
20455;BME280;10386;54.314;10.022;2023-04-08T08:46:16;102461.91;;;7.21;100.00
20455;BME280;10386;54.314;10.022;2023-04-08T08:48:43;102457.47;;;7.46;100.00
20455;BME280;10386;54.314;10.022;2023-04-08T08:51:11;102478.53;;;7.35;100.00
20455;BME280;10386;54.314;10.022;2023-04-08T08:53:39;102485.97;;;7.29;100.00
20455;BME280;10386;54.314;10.022;2023-04-08T08:56:10;102495.03;;;7.26;100.00
20455;BME280;10386;54.314;10.022;2023-04-08T08:58:40;102494.53;;;7.43;100.00
20455;BME280;10386;54.314;10.022;2023-04-08T09:04:16;102521.00;;;7.32;100.00
20455;BME280;10386;54.314;10.022;2023-04-08T09:06:47;102525.94;;;7.45;100.00
20455;BME280;10386;54.314;10.022;2023-04-08T09:09:16;102524.34;;;7.67;100.00
20455;BME280;10386;54.314;10.022;2023-04-08T09:11:45;102523.84;;;7.82;100.00
20455;BME280;10386;54.314;10.022;2023-04-08T09:14:22;102531.34;;;8.00;100.00
20455;BME280;10386;54.314;10.022;2023-04-08T09:16:50;102552.91;;;8.02;100.00
20455;BME280;10386;54.314;10.022;2023-04-08T09:19:18;102551.25;;;7.98;100.00
20455;BME280;10386;54.314;10.022;2023-04-08T09:21:45;102572.25;;;7.90;100.00
20455;BME280;10386;54.314;10.022;2023-04-08T09:24:29;102582.00;;;7.95;100.00
20455;BME280;10386;54.314;10.022;2023-04-08T09:26:56;102602.06;;;7.88;100.00
20455;BME280;10386;54.314;10.022;2023-04-08T09:29:24;102610.47;;;7.79;100.00
20455;BME280;10386;54.314;10.022;2023-04-08T09:31:58;102612.28;;;8.06;100.00
20455;BME280;10386;54.314;10.022;2023-04-08T09:34:26;102622.28;;;8.03;100.00
20455;BME280;10386;54.314;10.022;2023-04-08T09:36:54;102638.81;;;7.94;100.00
20455;BME280;10386;54.314;10.022;2023-04-08T09:39:21;102645.13;;;7.94;100.00
20455;BME280;10386;54.314;10.022;2023-04-08T09:41:49;102652.44;;;7.91;100.00
20455;BME280;10386;54.314;10.022;2023-04-08T09:44:19;102657.06;;;7.87;100.00
20455;BME280;10386;54.314;10.022;2023-04-08T09:46:53;102659.69;;;7.90;100.00
20455;BME280;10386;54.314;10.022;2023-04-08T09:54:31;102679.28;;;7.97;100.00
20455;BME280;10386;54.314;10.022;2023-04-08T09:57:06;102690.56;;;7.83;100.00
20455;BME280;10386;54.314;10.022;2023-04-08T09:59:36;102693.38;;;7.79;100.00
20455;BME280;10386;54.314;10.022;2023-04-08T10:02:06;102704.75;;;7.90;100.00
20455;BME280;10386;54.314;10.022;2023-04-08T10:04:37;102705.91;;;8.10;100.00
20455;BME280;10386;54.314;10.022;2023-04-08T10:07:06;102703.69;;;8.24;100.00
20455;BME280;10386;54.314;10.022;2023-04-08T10:09:33;102713.06;;;8.41;100.00
20455;BME280;10386;54.314;10.022;2023-04-08T10:12:00;102728.50;;;8.38;100.00
20455;BME280;10386;54.314;10.022;2023-04-08T10:14:28;102735.88;;;8.33;100.00
20455;BME280;10386;54.314;10.022;2023-04-08T10:17:35;102737.63;;;8.35;100.00
20455;BME280;10386;54.314;10.022;2023-04-08T10:20:02;102753.59;;;8.14;100.00
20455;BME280;10386;54.314;10.022;2023-04-08T10:27:42;102759.34;;;8.32;100.00
20455;BME280;10386;54.314;10.022;2023-04-08T10:32:55;102758.63;;;8.55;100.00
20455;BME280;10386;54.314;10.022;2023-04-08T10:35:29;102767.22;;;8.40;100.00
20455;BME280;10386;54.314;10.022;2023-04-08T10:37:57;102763.38;;;8.47;100.00
20455;BME280;10386;54.314;10.022;2023-04-08T10:40:24;102768.25;;;8.63;100.00
20455;BME280;10386;54.314;10.022;2023-04-08T10:42:58;102778.88;;;8.42;100.00
20455;BME280;10386;54.314;10.022;2023-04-08T10:45:25;102767.09;;;8.44;100.00
20455;BME280;10386;54.314;10.022;2023-04-08T10:47:51;102777.19;;;8.67;100.00
20455;BME280;10386;54.314;10.022;2023-04-08T10:50:19;102773.56;;;8.66;100.00
20455;BME280;10386;54.314;10.022;2023-04-08T10:52:53;102774.28;;;8.99;100.00
20455;BME280;10386;54.314;10.022;2023-04-08T10:55:23;102793.97;;;8.50;100.00
20455;BME280;10386;54.314;10.022;2023-04-08T10:57:51;102794.09;;;8.46;100.00
20455;BME280;10386;54.314;10.022;2023-04-08T11:00:30;102799.72;;;8.67;100.00
20455;BME280;10386;54.314;10.022;2023-04-08T11:03:02;102789.31;;;8.81;100.00
20455;BME280;10386;54.314;10.022;2023-04-08T11:05:30;102799.06;;;8.59;100.00
20455;BME280;10386;54.314;10.022;2023-04-08T11:07:57;102802.13;;;8.76;100.00
20455;BME280;10386;54.314;10.022;2023-04-08T11:10:25;102812.56;;;8.88;100.00
20455;BME280;10386;54.314;10.022;2023-04-08T11:12:56;102808.44;;;8.77;100.00
20455;BME280;10386;54.314;10.022;2023-04-08T11:15:29;102808.03;;;9.15;100.00
20455;BME280;10386;54.314;10.022;2023-04-08T11:17:56;102816.75;;;9.24;100.00
20455;BME280;10386;54.314;10.022;2023-04-08T11:20:23;102811.88;;;9.09;100.00
20455;BME280;10386;54.314;10.022;2023-04-08T11:22:50;102821.50;;;9.18;100.00
20455;BME280;10386;54.314;10.022;2023-04-08T11:25:17;102823.16;;;9.22;100.00
20455;BME280;10386;54.314;10.022;2023-04-08T11:27:44;102829.81;;;9.12;100.00
20455;BME280;10386;54.314;10.022;2023-04-08T11:30:12;102826.31;;;9.36;100.00
20455;BME280;10386;54.314;10.022;2023-04-08T11:32:38;102831.22;;;9.49;100.00
20455;BME280;10386;54.314;10.022;2023-04-08T11:35:07;102832.75;;;9.32;100.00
20455;BME280;10386;54.314;10.022;2023-04-08T11:37:39;102846.06;;;9.13;100.00
20455;BME280;10386;54.314;10.022;2023-04-08T11:40:10;102841.31;;;9.46;100.00
20455;BME280;10386;54.314;10.022;2023-04-08T11:42:38;102844.22;;;9.65;100.00
20455;BME280;10386;54.314;10.022;2023-04-08T11:45:12;102857.97;;;9.34;100.00
20455;BME280;10386;54.314;10.022;2023-04-08T11:47:39;102860.59;;;9.37;100.00
20455;BME280;10386;54.314;10.022;2023-04-08T11:50:07;102859.91;;;9.30;100.00
20455;BME280;10386;54.314;10.022;2023-04-08T11:52:48;102858.34;;;9.23;100.00
20455;BME280;10386;54.314;10.022;2023-04-08T11:57:53;102852.25;;;9.43;100.00
20455;BME280;10386;54.314;10.022;2023-04-08T12:00:21;102864.66;;;9.24;100.00
20455;BME280;10386;54.314;10.022;2023-04-08T12:02:48;102868.41;;;9.20;100.00
20455;BME280;10386;54.314;10.022;2023-04-08T12:05:16;102861.91;;;9.25;100.00
20455;BME280;10386;54.314;10.022;2023-04-08T12:07:43;102871.63;;;9.31;100.00
20455;BME280;10386;54.314;10.022;2023-04-08T12:10:10;102867.88;;;9.60;100.00
20455;BME280;10386;54.314;10.022;2023-04-08T12:12:37;102867.25;;;9.78;100.00
20455;BME280;10386;54.314;10.022;2023-04-08T12:15:05;102871.69;;;9.55;100.00
20455;BME280;10386;54.314;10.022;2023-04-08T12:17:34;102883.13;;;9.64;100.00
20455;BME280;10386;54.314;10.022;2023-04-08T12:20:01;102864.88;;;9.68;100.00
20455;BME280;10386;54.314;10.022;2023-04-08T12:22:29;102883.25;;;10.10;100.00
20455;BME280;10386;54.314;10.022;2023-04-08T12:24:56;102869.75;;;10.09;100.00
20455;BME280;10386;54.314;10.022;2023-04-08T12:27:24;102881.44;;;9.60;100.00
20455;BME280;10386;54.314;10.022;2023-04-08T12:29:51;102876.31;;;9.77;100.00
20455;BME280;10386;54.314;10.022;2023-04-08T12:32:18;102881.59;;;9.82;100.00
20455;BME280;10386;54.314;10.022;2023-04-08T12:34:46;102882.97;;;9.93;100.00
20455;BME280;10386;54.314;10.022;2023-04-08T12:37:12;102877.78;;;10.36;100.00
20455;BME280;10386;54.314;10.022;2023-04-08T12:39:39;102869.91;;;10.29;100.00
20455;BME280;10386;54.314;10.022;2023-04-08T12:42:06;102880.28;;;10.18;100.00
20455;BME280;10386;54.314;10.022;2023-04-08T12:44:33;102885.72;;;10.18;100.00
20455;BME280;10386;54.314;10.022;2023-04-08T12:47:00;102888.47;;;10.16;100.00
20455;BME280;10386;54.314;10.022;2023-04-08T12:49:26;102891.03;;;10.44;100.00
20455;BME280;10386;54.314;10.022;2023-04-08T12:51:53;102903.03;;;10.61;100.00
20455;BME280;10386;54.314;10.022;2023-04-08T12:54:20;102890.00;;;10.71;100.00
20455;BME280;10386;54.314;10.022;2023-04-08T12:56:47;102879.47;;;10.62;100.00
20455;BME280;10386;54.314;10.022;2023-04-08T12:59:14;102887.94;;;10.54;100.00
20455;BME280;10386;54.314;10.022;2023-04-08T13:01:41;102883.97;;;10.86;100.00
20455;BME280;10386;54.314;10.022;2023-04-08T13:04:08;102887.38;;;10.91;100.00
20455;BME280;10386;54.314;10.022;2023-04-08T13:06:35;102879.66;;;10.57;100.00
20455;BME280;10386;54.314;10.022;2023-04-08T13:09:02;102889.38;;;10.63;100.00
20455;BME280;10386;54.314;10.022;2023-04-08T13:11:29;102901.84;;;10.45;100.00